createdAt,value
2022-10-16T00:00:48.494Z,24.16
2022-10-16T00:03:14.865Z,24.14
2022-10-16T00:05:41.234Z,24.13
2022-10-16T00:08:07.610Z,24.15
2022-10-16T00:10:33.978Z,24.12
2022-10-16T00:13:00.342Z,24.11
2022-10-16T00:15:26.707Z,24.12
2022-10-16T00:17:55.054Z,24.13
2022-10-16T00:20:19.470Z,24.11
2022-10-16T00:22:45.825Z,24.10
2022-10-16T00:25:12.177Z,24.09
2022-10-16T00:27:38.631Z,24.09
2022-10-16T00:30:04.942Z,24.11
2022-10-16T00:32:31.275Z,24.02
2022-10-16T00:34:57.610Z,24.09
2022-10-16T00:37:23.960Z,24.09
2022-10-16T00:39:50.307Z,24.08
2022-10-16T00:42:16.652Z,24.08
2022-10-16T00:44:42.998Z,24.08
2022-10-16T00:47:09.359Z,24.05
2022-10-16T00:49:35.699Z,24.06
2022-10-16T00:52:02.041Z,24.07
2022-10-16T00:54:28.381Z,24.04
2022-10-16T00:56:54.752Z,24.04
2022-10-16T00:59:21.087Z,24.04
2022-10-16T01:01:47.730Z,24.03
2022-10-16T01:04:14.083Z,24.03
2022-10-16T01:06:40.424Z,24.04
2022-10-16T01:09:06.775Z,24.02
2022-10-16T01:11:33.152Z,24.02
2022-10-16T01:13:59.495Z,24.02
2022-10-16T01:16:25.840Z,24.02
2022-10-16T01:18:52.215Z,24.00
2022-10-16T01:21:18.557Z,24.00
2022-10-16T01:23:44.901Z,24.00
2022-10-16T01:26:11.257Z,23.89
2022-10-16T01:28:37.663Z,23.89
2022-10-16T01:31:03.938Z,23.96
2022-10-16T01:33:30.277Z,23.97
2022-10-16T01:35:56.638Z,23.95
2022-10-16T01:38:22.980Z,23.96
2022-10-16T01:40:49.332Z,23.95
2022-10-16T01:43:15.719Z,23.95
2022-10-16T01:45:42.054Z,23.95
2022-10-16T01:48:08.404Z,23.92
2022-10-16T01:50:34.766Z,23.93
2022-10-16T01:53:01.102Z,23.93
2022-10-16T01:55:27.453Z,23.93
2022-10-16T01:57:53.793Z,23.94
2022-10-16T02:00:20.141Z,23.92
2022-10-16T02:02:46.535Z,23.92
2022-10-16T02:05:12.887Z,23.91
2022-10-16T02:07:39.235Z,23.91
2022-10-16T02:10:05.583Z,23.91
2022-10-16T02:12:33.071Z,23.91
2022-10-16T02:14:59.454Z,23.89
2022-10-16T02:17:25.794Z,23.87
2022-10-16T02:19:52.188Z,23.89
2022-10-16T02:22:18.501Z,23.89
2022-10-16T02:24:44.855Z,23.88
2022-10-16T02:27:11.198Z,23.89
2022-10-16T02:29:37.538Z,23.87
2022-10-16T02:32:03.879Z,23.87
2022-10-16T02:34:30.249Z,23.86
2022-10-16T02:36:56.579Z,23.86
2022-10-16T02:39:22.928Z,23.86
2022-10-16T02:41:49.271Z,23.86
2022-10-16T02:44:15.626Z,23.86
2022-10-16T02:46:41.970Z,23.85
2022-10-16T02:49:08.328Z,23.84
2022-10-16T02:51:34.665Z,23.84
2022-10-16T02:54:01.007Z,23.84
2022-10-16T02:56:27.367Z,23.84
2022-10-16T02:58:53.711Z,23.83
2022-10-16T03:01:20.131Z,23.81
2022-10-16T03:03:46.420Z,23.82
2022-10-16T03:06:12.764Z,23.82
2022-10-16T03:08:39.119Z,23.74
2022-10-16T03:11:05.467Z,23.74
2022-10-16T03:13:31.808Z,23.81
2022-10-16T03:15:58.180Z,23.79
2022-10-16T03:18:24.547Z,23.80
2022-10-16T03:20:50.886Z,23.80
2022-10-16T03:23:17.354Z,23.79
2022-10-16T03:25:43.652Z,23.80
2022-10-16T03:28:09.996Z,23.80
2022-10-16T03:30:36.355Z,23.78
2022-10-16T03:33:02.712Z,23.79
2022-10-16T03:35:29.036Z,23.77
2022-10-16T03:37:55.392Z,23.78
2022-10-16T03:40:21.746Z,23.78
2022-10-16T03:42:48.098Z,23.76
2022-10-16T03:45:14.453Z,23.76
2022-10-16T03:47:40.833Z,23.75
2022-10-16T03:50:07.176Z,23.75
2022-10-16T03:52:33.523Z,23.73
2022-10-16T03:54:59.891Z,23.75
2022-10-16T03:57:26.333Z,23.76
2022-10-16T03:59:52.572Z,23.74
2022-10-16T04:02:18.918Z,23.72
2022-10-16T04:04:45.265Z,23.73
2022-10-16T04:07:11.611Z,23.73
2022-10-16T04:09:37.950Z,23.73
2022-10-16T04:12:04.351Z,23.73
2022-10-16T04:14:30.701Z,23.73
2022-10-16T04:16:57.054Z,23.72
2022-10-16T04:19:23.391Z,23.71
2022-10-16T04:21:49.792Z,23.70
2022-10-16T04:24:16.165Z,23.71
2022-10-16T04:26:42.513Z,23.70
2022-10-16T04:29:08.862Z,23.71
2022-10-16T04:31:35.213Z,23.70
2022-10-16T04:34:01.563Z,23.72
2022-10-16T04:36:29.281Z,23.69
2022-10-16T04:38:54.257Z,23.70
2022-10-16T04:41:20.635Z,23.70
2022-10-16T04:43:47.989Z,23.70
2022-10-16T04:46:14.341Z,23.69
2022-10-16T04:48:40.688Z,23.68
2022-10-16T04:51:07.072Z,23.68
2022-10-16T04:53:33.411Z,23.67
2022-10-16T04:55:59.799Z,23.66
2022-10-16T04:58:26.141Z,23.67
2022-10-16T05:00:52.500Z,23.67
2022-10-16T05:03:19.013Z,23.66
2022-10-16T05:05:45.199Z,23.67
2022-10-16T05:08:11.551Z,23.66
2022-10-16T05:10:37.902Z,23.67
2022-10-16T05:13:04.249Z,23.67
2022-10-16T05:15:30.726Z,23.67
2022-10-16T05:17:57.026Z,23.66
2022-10-16T05:20:23.383Z,23.68
2022-10-16T05:22:49.721Z,23.67
2022-10-16T05:25:16.065Z,23.67
2022-10-16T05:27:42.405Z,23.67
2022-10-16T05:30:11.589Z,23.66
2022-10-16T05:32:35.096Z,23.66
2022-10-16T05:35:01.446Z,23.66
2022-10-16T05:37:28.220Z,23.67
2022-10-16T05:39:54.137Z,23.67
2022-10-16T05:42:20.469Z,23.69
2022-10-16T05:44:46.821Z,23.68
2022-10-16T05:47:13.185Z,23.69
2022-10-16T05:49:41.349Z,23.68
2022-10-16T05:52:05.916Z,23.68
2022-10-16T05:54:32.261Z,23.68
2022-10-16T05:56:58.604Z,23.68
2022-10-16T05:59:24.952Z,23.68
2022-10-16T06:01:51.304Z,23.69
2022-10-16T06:04:17.652Z,23.69
2022-10-16T06:06:44.016Z,23.69
2022-10-16T06:09:10.364Z,23.69
2022-10-16T06:11:36.714Z,23.69
2022-10-16T06:14:03.065Z,23.71
2022-10-16T06:16:29.477Z,23.70
2022-10-16T06:18:55.823Z,23.70
2022-10-16T06:21:22.193Z,23.71
2022-10-16T06:23:48.547Z,23.71
2022-10-16T06:26:14.878Z,23.72
2022-10-16T06:28:41.285Z,23.72
2022-10-16T06:31:08.512Z,23.74
2022-10-16T06:33:33.920Z,23.73
2022-10-16T06:36:00.276Z,23.75
2022-10-16T06:38:26.619Z,23.75
2022-10-16T06:40:53.003Z,23.75
2022-10-16T06:43:19.346Z,23.77
2022-10-16T06:45:45.697Z,23.77
2022-10-16T06:48:12.044Z,23.77
2022-10-16T06:50:38.393Z,23.78
2022-10-16T06:53:04.757Z,23.80
2022-10-16T06:55:31.103Z,23.79
2022-10-16T06:57:57.452Z,23.81
2022-10-16T07:02:50.182Z,23.81
2022-10-16T07:05:16.528Z,23.82
2022-10-16T07:07:42.875Z,23.82
2022-10-16T07:10:09.220Z,23.84
2022-10-16T07:12:35.572Z,23.84
2022-10-16T07:15:01.926Z,23.85
2022-10-16T07:17:28.266Z,23.85
2022-10-16T07:19:54.614Z,23.88
2022-10-16T07:22:20.961Z,23.87
2022-10-16T07:24:51.780Z,23.86
2022-10-16T07:27:13.692Z,23.87
2022-10-16T07:29:40.038Z,23.87
2022-10-16T07:32:06.393Z,23.87
2022-10-16T07:34:32.737Z,23.87
2022-10-16T07:36:59.082Z,23.89
2022-10-16T07:39:25.423Z,23.89
2022-10-16T07:41:54.200Z,23.91
2022-10-16T07:44:20.542Z,23.91
2022-10-16T07:46:46.920Z,23.91
2022-10-16T07:49:13.261Z,23.90
2022-10-16T07:51:39.666Z,23.93
2022-10-16T07:54:06.011Z,23.92
2022-10-16T07:56:32.345Z,23.93
2022-10-16T07:58:58.715Z,23.93
2022-10-16T08:01:25.106Z,23.93
2022-10-16T08:03:51.488Z,23.92
2022-10-16T08:06:19.682Z,23.98
2022-10-16T08:08:44.094Z,23.98
2022-10-16T08:11:10.438Z,23.97
2022-10-16T08:13:36.794Z,23.99
2022-10-16T08:16:03.137Z,23.87
2022-10-16T08:18:29.497Z,24.01
2022-10-16T08:20:56.172Z,24.01
2022-10-16T08:23:22.548Z,24.00
2022-10-16T08:25:48.887Z,24.01
2022-10-16T08:28:15.236Z,24.02
2022-10-16T08:30:41.572Z,24.04
2022-10-16T08:33:07.914Z,24.03
2022-10-16T08:35:34.261Z,24.06
2022-10-16T08:38:00.611Z,24.05
2022-10-16T08:40:26.963Z,24.08
2022-10-16T08:42:53.315Z,24.09
2022-10-16T08:45:19.655Z,24.08
2022-10-16T08:47:46.000Z,24.09
2022-10-16T08:50:12.350Z,24.11
2022-10-16T08:52:38.700Z,24.10
2022-10-16T08:55:05.046Z,24.12
2022-10-16T08:57:31.401Z,24.12
2022-10-16T08:59:57.775Z,24.12
2022-10-16T09:02:24.452Z,24.16
2022-10-16T09:04:55.601Z,24.16
2022-10-16T09:07:16.869Z,24.16
2022-10-16T09:09:43.224Z,24.16
2022-10-16T09:12:09.592Z,24.13
2022-10-16T09:14:35.938Z,24.11
2022-10-16T09:17:02.322Z,24.12
2022-10-16T09:19:28.638Z,24.11
2022-10-16T09:21:54.993Z,24.10
2022-10-16T09:24:23.362Z,24.09
2022-10-16T09:26:47.693Z,24.05
2022-10-16T09:29:14.135Z,24.08
2022-10-16T09:31:42.468Z,24.05
2022-10-16T09:34:06.728Z,24.04
2022-10-16T09:36:33.114Z,24.03
2022-10-16T09:38:59.457Z,24.04
2022-10-16T09:41:25.811Z,24.02
2022-10-16T09:43:52.163Z,24.05
2022-10-16T09:46:18.522Z,24.02
2022-10-16T09:48:44.882Z,24.02
2022-10-16T09:51:12.439Z,24.03
2022-10-16T09:53:37.581Z,24.03
2022-10-16T09:56:03.930Z,24.04
2022-10-16T09:58:30.279Z,24.02
2022-10-16T10:00:56.624Z,24.03
2022-10-16T10:03:22.961Z,24.04
2022-10-16T10:05:49.355Z,24.05
2022-10-16T10:08:15.702Z,24.05
2022-10-16T10:10:42.048Z,24.06
2022-10-16T10:13:08.384Z,24.06
2022-10-16T10:15:34.744Z,24.07
2022-10-16T10:18:01.080Z,24.09
2022-10-16T10:20:27.425Z,24.08
2022-10-16T10:22:53.787Z,24.11
2022-10-16T10:25:20.135Z,24.14
2022-10-16T10:27:46.486Z,24.12
2022-10-16T10:30:12.897Z,24.18
2022-10-16T10:32:39.168Z,24.15
2022-10-16T10:35:05.512Z,24.20
2022-10-16T10:37:31.872Z,24.20
2022-10-16T10:39:58.217Z,24.21
2022-10-16T10:42:24.877Z,24.28
2022-10-16T10:44:50.922Z,24.29
2022-10-16T10:47:17.264Z,24.29
2022-10-16T10:49:46.667Z,24.34
2022-10-16T10:52:10.066Z,24.35
2022-10-16T10:54:36.404Z,24.30
2022-10-16T10:57:02.744Z,24.40
2022-10-16T10:59:29.139Z,24.42
2022-10-16T11:01:55.518Z,24.45
2022-10-16T11:04:21.869Z,24.46
2022-10-16T11:06:48.251Z,24.50
2022-10-16T11:09:14.587Z,24.53
2022-10-16T11:11:40.923Z,24.54
2022-10-16T11:14:07.275Z,24.59
2022-10-16T11:16:33.645Z,24.61
2022-10-16T11:19:00.029Z,24.65
2022-10-16T11:21:30.340Z,24.70
2022-10-16T11:23:52.722Z,24.73
2022-10-16T11:26:19.067Z,24.77
2022-10-16T11:28:45.457Z,24.79
2022-10-16T11:31:11.767Z,24.89
2022-10-16T11:33:38.104Z,24.86
2022-10-16T11:36:04.456Z,24.86
2022-10-16T11:38:30.795Z,25.00
2022-10-16T11:40:57.133Z,25.00
2022-10-16T11:43:23.480Z,25.04
2022-10-16T11:45:49.830Z,25.08
2022-10-16T11:48:16.182Z,25.13
2022-10-16T11:50:42.569Z,25.04
2022-10-16T11:53:08.907Z,25.23
2022-10-16T11:55:35.245Z,25.20
2022-10-16T11:58:01.598Z,25.31
2022-10-16T12:00:27.975Z,25.34
2022-10-16T12:02:54.319Z,25.37
2022-10-16T12:05:20.661Z,25.36
2022-10-16T12:07:47.013Z,25.36
2022-10-16T12:10:13.354Z,25.50
2022-10-16T12:12:40.052Z,25.55
2022-10-16T12:15:19.587Z,25.51
2022-10-16T12:17:32.448Z,25.63
2022-10-16T12:19:58.794Z,25.69
2022-10-16T12:22:25.371Z,25.73
2022-10-16T12:24:51.458Z,25.84
2022-10-16T12:27:17.808Z,25.84
2022-10-16T12:29:44.158Z,25.82
2022-10-16T12:32:13.043Z,25.94
2022-10-16T12:34:36.863Z,25.99
2022-10-16T12:37:03.247Z,26.01
2022-10-16T12:39:29.590Z,26.07
2022-10-16T12:41:55.937Z,26.16
2022-10-16T12:44:22.287Z,26.23
2022-10-16T12:46:48.625Z,26.32
2022-10-16T12:49:15.017Z,26.37
2022-10-16T12:51:41.366Z,26.39
2022-10-16T12:54:07.712Z,26.44
2022-10-16T12:56:34.088Z,26.50
2022-10-16T12:59:00.433Z,26.52
2022-10-16T13:01:26.807Z,26.56
2022-10-16T13:03:53.145Z,26.60
2022-10-16T13:06:19.483Z,26.59
2022-10-16T13:08:45.842Z,26.62
2022-10-16T13:11:12.189Z,26.65
2022-10-16T13:13:38.551Z,26.65
2022-10-16T13:16:04.894Z,26.70
2022-10-16T13:18:31.235Z,26.72
2022-10-16T13:20:57.569Z,26.75
2022-10-16T13:23:23.931Z,26.70
2022-10-16T13:25:50.285Z,26.78
2022-10-16T13:28:16.659Z,26.87
2022-10-16T13:30:43.035Z,27.49
2022-10-16T13:33:09.360Z,27.71
2022-10-16T13:38:16.030Z,27.76
2022-10-16T13:40:42.356Z,27.76
2022-10-16T13:43:08.697Z,27.72
2022-10-16T13:45:35.035Z,27.71
2022-10-16T13:48:02.580Z,27.71
2022-10-16T13:50:27.726Z,27.66
2022-10-16T13:52:54.067Z,27.61
2022-10-16T13:55:20.410Z,27.59
2022-10-16T13:57:46.750Z,27.58
2022-10-16T14:00:13.088Z,27.51
2022-10-16T14:02:39.429Z,27.48
2022-10-16T14:05:05.770Z,27.44
2022-10-16T14:07:32.116Z,27.43
2022-10-16T14:09:58.456Z,27.40
2022-10-16T14:12:27.991Z,27.47
2022-10-16T14:14:51.140Z,27.61
2022-10-16T14:17:17.497Z,27.50
2022-10-16T14:19:43.837Z,27.21
2022-10-16T14:22:10.182Z,27.14
2022-10-16T14:24:36.524Z,26.86
2022-10-16T14:27:02.900Z,26.77
2022-10-16T14:29:29.230Z,26.67
2022-10-16T14:31:55.576Z,26.49
2022-10-16T14:34:21.913Z,26.34
2022-10-16T14:36:48.261Z,26.06
2022-10-16T14:39:14.598Z,26.01
2022-10-16T14:41:40.940Z,25.76
2022-10-16T14:44:07.283Z,25.73
2022-10-16T14:46:33.636Z,25.63
2022-10-16T14:48:59.981Z,25.64
2022-10-16T14:51:26.321Z,25.56
2022-10-16T14:53:55.470Z,25.47
2022-10-16T14:56:19.002Z,25.40
2022-10-16T14:58:45.342Z,25.33
2022-10-16T15:01:11.705Z,25.40
2022-10-16T15:03:38.041Z,25.32
2022-10-16T15:06:04.359Z,25.26
2022-10-16T15:08:30.697Z,25.29
2022-10-16T15:10:57.083Z,25.23
2022-10-16T15:13:23.423Z,25.30
2022-10-16T15:15:49.770Z,25.25
2022-10-16T15:18:16.095Z,25.21
2022-10-16T15:20:42.438Z,25.26
2022-10-16T15:23:08.771Z,25.23
2022-10-16T15:25:35.110Z,25.18
2022-10-16T15:28:01.445Z,25.17
2022-10-16T15:30:27.798Z,25.19
2022-10-16T15:32:54.439Z,25.13
2022-10-16T15:35:20.778Z,25.12
2022-10-16T15:37:47.110Z,25.11
2022-10-16T15:40:13.450Z,25.06
2022-10-16T15:42:39.784Z,25.04
2022-10-16T15:45:06.130Z,25.02
2022-10-16T15:47:32.458Z,24.97
2022-10-16T15:49:58.802Z,25.02
2022-10-16T15:52:25.273Z,25.05
2022-10-16T15:54:54.104Z,25.18
2022-10-16T15:57:17.828Z,25.31
2022-10-16T15:59:44.218Z,25.32
2022-10-16T16:02:10.652Z,25.32
2022-10-16T16:04:43.857Z,25.35
2022-10-16T16:07:03.190Z,25.36
2022-10-16T16:09:29.540Z,25.37
2022-10-16T16:11:55.880Z,25.36
2022-10-16T16:14:22.220Z,25.33
2022-10-16T16:16:48.589Z,25.36
2022-10-16T16:19:14.929Z,25.34
2022-10-16T16:21:41.269Z,25.34
2022-10-16T16:24:07.607Z,25.32
2022-10-16T16:26:33.957Z,25.33
2022-10-16T16:29:00.348Z,25.31
2022-10-16T16:31:26.656Z,25.31
2022-10-16T16:33:52.989Z,25.29
2022-10-16T16:36:19.441Z,25.28
2022-10-16T16:38:45.689Z,25.29
2022-10-16T16:41:12.025Z,25.26
2022-10-16T16:43:38.362Z,25.25
2022-10-16T16:46:04.704Z,25.23
2022-10-16T16:48:31.037Z,25.24
2022-10-16T16:50:57.370Z,25.22
2022-10-16T16:53:23.710Z,25.22
2022-10-16T16:55:50.061Z,25.21
2022-10-16T16:58:16.467Z,25.20
2022-10-16T17:00:56.301Z,25.18
2022-10-16T17:03:09.142Z,25.18
2022-10-16T17:05:35.512Z,25.18
2022-10-16T17:08:01.856Z,25.17
2022-10-16T17:10:28.204Z,25.16
2022-10-16T17:15:20.910Z,25.16
2022-10-16T17:17:47.272Z,25.15
2022-10-16T17:20:13.613Z,25.15
2022-10-16T17:22:39.945Z,25.11
2022-10-16T17:25:06.291Z,25.13
2022-10-16T17:27:32.621Z,25.14
2022-10-16T17:29:58.972Z,25.15
2022-10-16T17:32:25.607Z,25.16
2022-10-16T17:34:52.774Z,25.14
2022-10-16T17:37:18.300Z,25.18
2022-10-16T17:39:44.318Z,25.19
2022-10-16T17:42:10.677Z,25.19
2022-10-16T17:44:36.993Z,25.21
2022-10-16T17:47:03.327Z,25.13
2022-10-16T17:49:29.666Z,25.13
2022-10-16T17:51:56.002Z,25.24
2022-10-16T17:54:22.348Z,25.24
2022-10-16T17:56:48.685Z,25.19
2022-10-16T17:59:15.029Z,25.17
2022-10-16T18:01:41.442Z,25.20
2022-10-16T18:04:07.742Z,25.18
2022-10-16T18:06:34.076Z,25.21
2022-10-16T18:09:00.416Z,25.19
2022-10-16T18:11:26.755Z,25.17
2022-10-16T18:13:53.113Z,25.17
2022-10-16T18:16:19.448Z,25.17
2022-10-16T18:18:45.795Z,25.17
2022-10-16T18:21:12.128Z,25.16
2022-10-16T18:23:38.474Z,25.15
2022-10-16T18:26:04.835Z,25.12
2022-10-16T18:28:31.162Z,25.11
2022-10-16T18:30:57.483Z,25.14
2022-10-16T18:33:23.824Z,25.11
2022-10-16T18:35:50.163Z,25.11
2022-10-16T18:38:16.504Z,25.09
2022-10-16T18:40:42.843Z,25.10
2022-10-16T18:43:09.235Z,25.11
2022-10-16T18:45:35.581Z,25.10
2022-10-16T18:48:01.911Z,25.10
2022-10-16T18:50:28.246Z,24.98
2022-10-16T18:52:54.608Z,24.98
2022-10-16T18:55:20.967Z,25.05
2022-10-16T18:57:47.312Z,25.04
2022-10-16T19:00:13.663Z,25.05
2022-10-16T19:02:40.002Z,25.02
2022-10-16T19:05:06.734Z,25.02
2022-10-16T19:07:32.704Z,25.02
2022-10-16T19:09:59.041Z,25.02
2022-10-16T19:12:25.774Z,25.03
2022-10-16T19:14:51.758Z,24.99
2022-10-16T19:17:18.101Z,25.00
2022-10-16T19:19:44.448Z,24.82
2022-10-16T19:22:10.812Z,24.90
2022-10-16T19:24:37.147Z,24.90
2022-10-16T19:27:03.491Z,24.93
2022-10-16T19:29:29.826Z,24.95
2022-10-16T19:31:56.169Z,24.93
2022-10-16T19:34:22.515Z,24.93
2022-10-16T19:36:48.857Z,24.85
2022-10-16T19:39:15.290Z,24.87
2022-10-16T19:41:41.541Z,24.78
2022-10-16T19:44:07.878Z,24.71
2022-10-16T19:46:34.215Z,24.77
2022-10-16T19:49:00.554Z,24.77
2022-10-16T19:51:26.902Z,24.84
2022-10-16T19:53:53.237Z,24.67
2022-10-16T19:56:19.583Z,24.82
2022-10-16T19:58:45.935Z,24.83
2022-10-16T20:01:12.305Z,24.81
2022-10-16T20:03:38.608Z,24.81
2022-10-16T20:06:04.950Z,24.79
2022-10-16T20:08:31.282Z,24.79
2022-10-16T20:10:57.634Z,24.64
2022-10-16T20:13:23.965Z,24.79
2022-10-16T20:15:50.566Z,24.75
2022-10-16T20:18:16.865Z,24.75
2022-10-16T20:20:43.206Z,24.72
2022-10-16T20:23:09.536Z,24.73
2022-10-16T20:25:35.887Z,24.73
2022-10-16T20:28:02.225Z,24.73
2022-10-16T20:30:28.565Z,24.72
2022-10-16T20:32:54.933Z,24.72
2022-10-16T20:35:21.274Z,24.71
2022-10-16T20:37:47.604Z,24.55
2022-10-16T20:40:13.947Z,24.70
2022-10-16T20:42:40.279Z,24.70
2022-10-16T20:45:06.637Z,24.68
2022-10-16T20:47:32.988Z,24.68
2022-10-16T20:49:59.341Z,24.67
2022-10-16T20:52:25.674Z,24.66
2022-10-16T20:54:52.038Z,24.57
2022-10-16T20:57:18.376Z,24.57
2022-10-16T20:59:44.713Z,24.65
2022-10-16T21:02:13.539Z,24.57
2022-10-16T21:04:37.394Z,24.65
2022-10-16T21:07:03.726Z,24.48
2022-10-16T21:09:30.071Z,24.62
2022-10-16T21:11:56.423Z,24.63
2022-10-16T21:14:22.787Z,24.63
2022-10-16T21:16:49.121Z,24.60
2022-10-16T21:19:15.471Z,24.60
2022-10-16T21:21:41.813Z,24.59
2022-10-16T21:24:11.995Z,24.59
2022-10-16T21:26:34.512Z,24.49
2022-10-16T21:29:00.927Z,24.59
2022-10-16T21:31:27.195Z,24.58
2022-10-16T21:33:53.537Z,24.56
2022-10-16T21:36:19.875Z,24.53
2022-10-16T21:41:12.553Z,24.56
2022-10-16T21:43:38.894Z,24.51
2022-10-16T21:46:05.235Z,24.45
2022-10-16T21:48:31.574Z,24.52
2022-10-16T21:50:57.900Z,24.52
2022-10-16T21:53:24.244Z,24.46
2022-10-16T21:55:50.574Z,24.52
2022-10-16T21:58:16.916Z,24.51
2022-10-16T22:00:43.247Z,24.50
2022-10-16T22:03:09.625Z,24.48
2022-10-16T22:05:35.951Z,24.48
2022-10-16T22:08:02.286Z,24.41
2022-10-16T22:10:28.625Z,24.47
2022-10-16T22:12:54.968Z,24.48
2022-10-16T22:15:21.320Z,24.45
2022-10-16T22:17:47.658Z,24.45
2022-10-16T22:20:13.996Z,24.36
2022-10-16T22:22:40.348Z,24.36
2022-10-16T22:25:06.691Z,24.43
2022-10-16T22:27:33.056Z,24.42
2022-10-16T22:29:59.391Z,24.43
2022-10-16T22:32:25.733Z,24.42
2022-10-16T22:34:52.064Z,24.38
2022-10-16T22:37:18.409Z,24.39
2022-10-16T22:39:44.755Z,24.39
2022-10-16T22:42:11.097Z,24.39
2022-10-16T22:44:37.476Z,24.39
2022-10-16T22:47:03.816Z,24.38
2022-10-16T22:49:30.153Z,24.39
2022-10-16T22:51:56.487Z,24.28
2022-10-16T22:54:22.817Z,24.37
2022-10-16T22:56:49.164Z,24.37
2022-10-16T22:59:15.506Z,24.37
2022-10-16T23:01:41.851Z,24.37
2022-10-16T23:04:08.196Z,24.33
2022-10-16T23:06:34.566Z,24.34
2022-10-16T23:09:00.891Z,24.33
2022-10-16T23:11:27.240Z,24.33
2022-10-16T23:13:53.580Z,24.31
2022-10-16T23:16:19.917Z,24.31
2022-10-16T23:18:46.256Z,24.29
2022-10-16T23:21:12.599Z,24.31
2022-10-16T23:23:38.941Z,24.31
2022-10-16T23:26:05.289Z,24.28
2022-10-16T23:28:31.646Z,24.28
2022-10-16T23:30:57.960Z,24.29
2022-10-16T23:33:24.303Z,24.28
2022-10-16T23:35:50.640Z,24.19
2022-10-16T23:38:16.975Z,24.19
2022-10-16T23:40:43.328Z,24.26
2022-10-16T23:43:09.672Z,24.25
2022-10-16T23:45:36.010Z,24.25
2022-10-16T23:48:03.030Z,24.22
2022-10-16T23:50:29.389Z,24.21
2022-10-16T23:52:55.722Z,24.23
2022-10-16T23:55:22.133Z,24.23
2022-10-16T23:57:48.411Z,24.22
